sensor_id;sensor_type;location;lat;lon;timestamp;temperature;humidity
17200;DHT22;8716;52.268;20.968;2023-10-31T00:01:27;12.90;99.90
17200;DHT22;8716;52.268;20.968;2023-10-31T00:03:56;12.90;99.90
17200;DHT22;8716;52.268;20.968;2023-10-31T00:06:24;12.90;99.90
17200;DHT22;8716;52.268;20.968;2023-10-31T00:08:54;12.80;99.90
17200;DHT22;8716;52.268;20.968;2023-10-31T00:11:23;12.80;99.90
17200;DHT22;8716;52.268;20.968;2023-10-31T00:13:51;12.70;99.90
17200;DHT22;8716;52.268;20.968;2023-10-31T00:16:20;12.70;99.90
17200;DHT22;8716;52.268;20.968;2023-10-31T00:18:48;12.70;99.90
17200;DHT22;8716;52.268;20.968;2023-10-31T00:21:16;12.70;99.90
17200;DHT22;8716;52.268;20.968;2023-10-31T00:23:47;12.70;99.90
17200;DHT22;8716;52.268;20.968;2023-10-31T00:26:17;12.60;99.90
17200;DHT22;8716;52.268;20.968;2023-10-31T00:28:51;12.60;99.90
17200;DHT22;8716;52.268;20.968;2023-10-31T00:31:20;12.60;99.90
17200;DHT22;8716;52.268;20.968;2023-10-31T00:33:48;12.50;99.90
17200;DHT22;8716;52.268;20.968;2023-10-31T00:36:16;12.50;99.90
17200;DHT22;8716;52.268;20.968;2023-10-31T00:38:44;12.40;99.90
17200;DHT22;8716;52.268;20.968;2023-10-31T00:41:13;12.40;99.90
17200;DHT22;8716;52.268;20.968;2023-10-31T00:43:42;12.40;99.90
17200;DHT22;8716;52.268;20.968;2023-10-31T00:46:11;12.40;99.90
17200;DHT22;8716;52.268;20.968;2023-10-31T00:48:40;12.40;99.90
17200;DHT22;8716;52.268;20.968;2023-10-31T00:51:08;12.40;99.90
17200;DHT22;8716;52.268;20.968;2023-10-31T00:53:36;12.40;99.90
17200;DHT22;8716;52.268;20.968;2023-10-31T00:56:07;12.40;99.90
17200;DHT22;8716;52.268;20.968;2023-10-31T00:58:35;12.40;99.90
17200;DHT22;8716;52.268;20.968;2023-10-31T01:01:05;12.40;99.90
17200;DHT22;8716;52.268;20.968;2023-10-31T01:03:34;12.40;99.90
17200;DHT22;8716;52.268;20.968;2023-10-31T01:06:04;12.40;99.90
17200;DHT22;8716;52.268;20.968;2023-10-31T01:08:32;12.40;99.90
17200;DHT22;8716;52.268;20.968;2023-10-31T01:11:00;12.40;99.90
17200;DHT22;8716;52.268;20.968;2023-10-31T01:13:29;12.40;99.90
17200;DHT22;8716;52.268;20.968;2023-10-31T01:15:57;12.40;99.90
17200;DHT22;8716;52.268;20.968;2023-10-31T01:18:28;12.40;99.90
17200;DHT22;8716;52.268;20.968;2023-10-31T01:20:59;12.40;99.90
17200;DHT22;8716;52.268;20.968;2023-10-31T01:23:27;12.40;99.90
17200;DHT22;8716;52.268;20.968;2023-10-31T01:25:56;12.40;99.90
17200;DHT22;8716;52.268;20.968;2023-10-31T01:28:24;12.40;99.90
17200;DHT22;8716;52.268;20.968;2023-10-31T01:30:52;12.40;99.90
17200;DHT22;8716;52.268;20.968;2023-10-31T01:33:21;12.30;99.90
17200;DHT22;8716;52.268;20.968;2023-10-31T01:35:51;12.30;99.90
17200;DHT22;8716;52.268;20.968;2023-10-31T01:38:19;12.30;99.90
17200;DHT22;8716;52.268;20.968;2023-10-31T01:40:49;12.40;99.90
17200;DHT22;8716;52.268;20.968;2023-10-31T01:43:29;12.30;99.90
17200;DHT22;8716;52.268;20.968;2023-10-31T01:45:58;12.30;99.90
17200;DHT22;8716;52.268;20.968;2023-10-31T01:48:29;12.30;99.90
17200;DHT22;8716;52.268;20.968;2023-10-31T01:50:59;12.40;99.90
17200;DHT22;8716;52.268;20.968;2023-10-31T01:53:31;12.40;99.90
17200;DHT22;8716;52.268;20.968;2023-10-31T01:56:00;12.40;99.90
17200;DHT22;8716;52.268;20.968;2023-10-31T01:58:31;12.40;99.90
17200;DHT22;8716;52.268;20.968;2023-10-31T02:01:01;12.50;99.90
17200;DHT22;8716;52.268;20.968;2023-10-31T02:03:32;12.50;99.90
17200;DHT22;8716;52.268;20.968;2023-10-31T02:06:03;12.60;99.90
17200;DHT22;8716;52.268;20.968;2023-10-31T02:08:32;12.60;99.90
17200;DHT22;8716;52.268;20.968;2023-10-31T02:11:00;12.50;99.90
17200;DHT22;8716;52.268;20.968;2023-10-31T02:13:28;12.60;99.90
17200;DHT22;8716;52.268;20.968;2023-10-31T02:15:57;12.60;99.90
17200;DHT22;8716;52.268;20.968;2023-10-31T02:18:25;12.60;99.90
17200;DHT22;8716;52.268;20.968;2023-10-31T02:20:54;12.60;99.90
17200;DHT22;8716;52.268;20.968;2023-10-31T02:23:23;12.60;99.90
17200;DHT22;8716;52.268;20.968;2023-10-31T02:25:52;12.60;99.90
17200;DHT22;8716;52.268;20.968;2023-10-31T02:28:20;12.70;99.90
17200;DHT22;8716;52.268;20.968;2023-10-31T02:30:48;12.70;99.90
17200;DHT22;8716;52.268;20.968;2023-10-31T02:33:17;12.70;99.90
17200;DHT22;8716;52.268;20.968;2023-10-31T02:35:46;12.70;99.90
17200;DHT22;8716;52.268;20.968;2023-10-31T02:38:14;12.80;99.90
17200;DHT22;8716;52.268;20.968;2023-10-31T02:40:44;12.80;99.90
17200;DHT22;8716;52.268;20.968;2023-10-31T02:43:12;12.80;99.90
17200;DHT22;8716;52.268;20.968;2023-10-31T02:45:40;12.80;99.90
17200;DHT22;8716;52.268;20.968;2023-10-31T02:48:08;12.80;99.90
17200;DHT22;8716;52.268;20.968;2023-10-31T02:50:37;12.90;99.90
17200;DHT22;8716;52.268;20.968;2023-10-31T02:53:07;12.90;99.90
17200;DHT22;8716;52.268;20.968;2023-10-31T02:55:35;12.90;99.90
17200;DHT22;8716;52.268;20.968;2023-10-31T02:58:05;12.90;99.90
17200;DHT22;8716;52.268;20.968;2023-10-31T03:00:33;13.00;99.90
17200;DHT22;8716;52.268;20.968;2023-10-31T03:03:02;13.00;99.90
17200;DHT22;8716;52.268;20.968;2023-10-31T03:05:30;13.00;99.90
17200;DHT22;8716;52.268;20.968;2023-10-31T03:07:58;13.10;99.90
17200;DHT22;8716;52.268;20.968;2023-10-31T03:10:27;13.10;99.90
17200;DHT22;8716;52.268;20.968;2023-10-31T03:12:55;13.10;99.90
17200;DHT22;8716;52.268;20.968;2023-10-31T03:15:25;13.10;99.90
17200;DHT22;8716;52.268;20.968;2023-10-31T03:17:57;13.20;99.90
17200;DHT22;8716;52.268;20.968;2023-10-31T03:20:26;13.20;99.90
17200;DHT22;8716;52.268;20.968;2023-10-31T03:22:55;13.20;99.90
17200;DHT22;8716;52.268;20.968;2023-10-31T03:25:24;13.20;99.90
17200;DHT22;8716;52.268;20.968;2023-10-31T03:27:52;13.20;99.90
17200;DHT22;8716;52.268;20.968;2023-10-31T03:33:04;13.30;99.90
17200;DHT22;8716;52.268;20.968;2023-10-31T03:35:32;13.30;99.90
17200;DHT22;8716;52.268;20.968;2023-10-31T03:38:01;13.30;99.90
17200;DHT22;8716;52.268;20.968;2023-10-31T03:40:32;13.40;99.90
17200;DHT22;8716;52.268;20.968;2023-10-31T03:43:00;13.40;99.90
17200;DHT22;8716;52.268;20.968;2023-10-31T03:45:29;13.40;99.90
17200;DHT22;8716;52.268;20.968;2023-10-31T03:47:59;13.50;99.90
17200;DHT22;8716;52.268;20.968;2023-10-31T03:50:29;13.40;99.90
17200;DHT22;8716;52.268;20.968;2023-10-31T03:52:57;13.50;99.90
17200;DHT22;8716;52.268;20.968;2023-10-31T03:55:26;13.50;99.90
17200;DHT22;8716;52.268;20.968;2023-10-31T03:57:54;13.60;99.90
17200;DHT22;8716;52.268;20.968;2023-10-31T04:00:23;13.60;99.90
17200;DHT22;8716;52.268;20.968;2023-10-31T04:02:51;13.60;99.90
17200;DHT22;8716;52.268;20.968;2023-10-31T04:05:20;13.70;99.90
17200;DHT22;8716;52.268;20.968;2023-10-31T04:07:51;13.70;99.90
17200;DHT22;8716;52.268;20.968;2023-10-31T04:10:19;13.70;99.90
17200;DHT22;8716;52.268;20.968;2023-10-31T04:12:48;13.70;99.90
17200;DHT22;8716;52.268;20.968;2023-10-31T04:15:16;13.80;99.90
17200;DHT22;8716;52.268;20.968;2023-10-31T04:17:44;13.80;99.90
17200;DHT22;8716;52.268;20.968;2023-10-31T04:20:13;13.80;99.90
17200;DHT22;8716;52.268;20.968;2023-10-31T04:22:41;13.90;99.90
17200;DHT22;8716;52.268;20.968;2023-10-31T04:25:11;13.90;99.90
17200;DHT22;8716;52.268;20.968;2023-10-31T04:27:40;13.90;99.90
17200;DHT22;8716;52.268;20.968;2023-10-31T04:30:08;13.90;99.90
17200;DHT22;8716;52.268;20.968;2023-10-31T04:32:41;14.00;99.90
17200;DHT22;8716;52.268;20.968;2023-10-31T04:35:09;14.00;99.90
17200;DHT22;8716;52.268;20.968;2023-10-31T04:37:38;14.00;99.90
17200;DHT22;8716;52.268;20.968;2023-10-31T04:40:07;14.10;99.90
17200;DHT22;8716;52.268;20.968;2023-10-31T04:42:38;14.20;99.90
17200;DHT22;8716;52.268;20.968;2023-10-31T04:45:07;14.30;99.90
17200;DHT22;8716;52.268;20.968;2023-10-31T04:47:36;14.30;99.90
17200;DHT22;8716;52.268;20.968;2023-10-31T04:50:05;14.40;99.90
17200;DHT22;8716;52.268;20.968;2023-10-31T04:52:33;14.40;99.90
17200;DHT22;8716;52.268;20.968;2023-10-31T04:55:02;14.40;99.90
17200;DHT22;8716;52.268;20.968;2023-10-31T04:57:32;14.40;99.90
17200;DHT22;8716;52.268;20.968;2023-10-31T05:00:03;14.50;99.90
17200;DHT22;8716;52.268;20.968;2023-10-31T05:02:33;14.50;99.90
17200;DHT22;8716;52.268;20.968;2023-10-31T05:05:02;14.50;99.90
17200;DHT22;8716;52.268;20.968;2023-10-31T05:07:30;14.60;99.90
17200;DHT22;8716;52.268;20.968;2023-10-31T05:10:00;14.60;99.90
17200;DHT22;8716;52.268;20.968;2023-10-31T05:12:28;14.60;99.90
17200;DHT22;8716;52.268;20.968;2023-10-31T05:14:57;14.70;99.90
17200;DHT22;8716;52.268;20.968;2023-10-31T05:17:26;14.70;99.90
17200;DHT22;8716;52.268;20.968;2023-10-31T05:19:54;14.70;99.90
17200;DHT22;8716;52.268;20.968;2023-10-31T05:22:25;14.70;99.90
17200;DHT22;8716;52.268;20.968;2023-10-31T05:24:54;14.70;99.90
17200;DHT22;8716;52.268;20.968;2023-10-31T05:27:22;14.70;99.90
17200;DHT22;8716;52.268;20.968;2023-10-31T05:29:50;14.80;99.90
17200;DHT22;8716;52.268;20.968;2023-10-31T05:32:22;14.90;99.90
17200;DHT22;8716;52.268;20.968;2023-10-31T05:34:54;14.80;99.90
17200;DHT22;8716;52.268;20.968;2023-10-31T05:37:26;14.90;99.90
17200;DHT22;8716;52.268;20.968;2023-10-31T05:39:54;14.90;99.90
17200;DHT22;8716;52.268;20.968;2023-10-31T05:42:23;14.90;99.90
17200;DHT22;8716;52.268;20.968;2023-10-31T05:44:52;14.90;99.90
17200;DHT22;8716;52.268;20.968;2023-10-31T05:47:22;14.90;99.90
17200;DHT22;8716;52.268;20.968;2023-10-31T05:49:51;14.90;99.90
17200;DHT22;8716;52.268;20.968;2023-10-31T05:52:21;14.90;99.90
17200;DHT22;8716;52.268;20.968;2023-10-31T05:54:49;15.00;99.90
17200;DHT22;8716;52.268;20.968;2023-10-31T05:57:17;15.00;99.90
17200;DHT22;8716;52.268;20.968;2023-10-31T05:59:46;15.10;99.90
17200;DHT22;8716;52.268;20.968;2023-10-31T06:02:20;15.00;99.90
17200;DHT22;8716;52.268;20.968;2023-10-31T06:04:49;15.00;99.90
17200;DHT22;8716;52.268;20.968;2023-10-31T06:07:17;15.10;99.90
17200;DHT22;8716;52.268;20.968;2023-10-31T06:09:47;15.10;99.90
17200;DHT22;8716;52.268;20.968;2023-10-31T06:12:15;15.20;99.90
17200;DHT22;8716;52.268;20.968;2023-10-31T06:14:43;15.20;99.90
17200;DHT22;8716;52.268;20.968;2023-10-31T06:17:12;15.20;99.90
17200;DHT22;8716;52.268;20.968;2023-10-31T06:19:40;15.20;99.90
17200;DHT22;8716;52.268;20.968;2023-10-31T06:22:12;15.30;99.90
17200;DHT22;8716;52.268;20.968;2023-10-31T06:24:40;15.30;99.90
17200;DHT22;8716;52.268;20.968;2023-10-31T06:27:10;15.30;99.90
17200;DHT22;8716;52.268;20.968;2023-10-31T06:29:38;15.40;99.90
17200;DHT22;8716;52.268;20.968;2023-10-31T06:32:27;15.50;99.90
17200;DHT22;8716;52.268;20.968;2023-10-31T06:34:55;15.50;99.90
17200;DHT22;8716;52.268;20.968;2023-10-31T06:37:24;15.50;99.90
17200;DHT22;8716;52.268;20.968;2023-10-31T06:39:52;15.50;99.90
17200;DHT22;8716;52.268;20.968;2023-10-31T06:42:23;15.50;99.90
17200;DHT22;8716;52.268;20.968;2023-10-31T06:44:52;15.50;99.90
17200;DHT22;8716;52.268;20.968;2023-10-31T06:47:20;15.50;99.90
17200;DHT22;8716;52.268;20.968;2023-10-31T06:49:49;15.50;99.90
17200;DHT22;8716;52.268;20.968;2023-10-31T06:52:17;15.50;99.90
17200;DHT22;8716;52.268;20.968;2023-10-31T06:54:45;15.50;99.90
17200;DHT22;8716;52.268;20.968;2023-10-31T06:57:13;15.50;99.90
17200;DHT22;8716;52.268;20.968;2023-10-31T06:59:44;15.50;99.90
17200;DHT22;8716;52.268;20.968;2023-10-31T07:02:13;15.50;99.90
17200;DHT22;8716;52.268;20.968;2023-10-31T07:04:42;15.50;99.90
17200;DHT22;8716;52.268;20.968;2023-10-31T07:07:10;15.50;99.90
17200;DHT22;8716;52.268;20.968;2023-10-31T07:09:41;15.50;99.90
17200;DHT22;8716;52.268;20.968;2023-10-31T07:12:09;15.50;99.90
17200;DHT22;8716;52.268;20.968;2023-10-31T07:14:37;15.60;99.90
17200;DHT22;8716;52.268;20.968;2023-10-31T07:17:07;15.70;99.90
17200;DHT22;8716;52.268;20.968;2023-10-31T07:19:35;15.60;99.90
17200;DHT22;8716;52.268;20.968;2023-10-31T07:22:04;15.70;99.90
17200;DHT22;8716;52.268;20.968;2023-10-31T07:24:32;15.70;99.90
17200;DHT22;8716;52.268;20.968;2023-10-31T07:27:03;15.70;99.90
17200;DHT22;8716;52.268;20.968;2023-10-31T07:29:32;15.80;99.90
17200;DHT22;8716;52.268;20.968;2023-10-31T07:32:00;15.80;99.90
17200;DHT22;8716;52.268;20.968;2023-10-31T07:34:30;15.80;99.90
17200;DHT22;8716;52.268;20.968;2023-10-31T07:37:01;15.90;99.90
17200;DHT22;8716;52.268;20.968;2023-10-31T07:39:29;15.90;99.90
17200;DHT22;8716;52.268;20.968;2023-10-31T07:41:57;16.00;99.90
17200;DHT22;8716;52.268;20.968;2023-10-31T07:44:26;16.00;99.90
17200;DHT22;8716;52.268;20.968;2023-10-31T07:46:54;16.00;99.90
17200;DHT22;8716;52.268;20.968;2023-10-31T07:49:23;16.00;99.90
17200;DHT22;8716;52.268;20.968;2023-10-31T07:51:52;16.00;99.90
17200;DHT22;8716;52.268;20.968;2023-10-31T07:54:21;16.00;99.90
17200;DHT22;8716;52.268;20.968;2023-10-31T07:56:50;16.10;99.90
17200;DHT22;8716;52.268;20.968;2023-10-31T07:59:18;16.10;99.90
17200;DHT22;8716;52.268;20.968;2023-10-31T08:01:47;16.00;99.90
17200;DHT22;8716;52.268;20.968;2023-10-31T08:04:18;15.90;99.90
17200;DHT22;8716;52.268;20.968;2023-10-31T08:06:47;15.90;99.90
17200;DHT22;8716;52.268;20.968;2023-10-31T08:09:17;15.80;99.90
17200;DHT22;8716;52.268;20.968;2023-10-31T08:11:48;15.70;99.90
17200;DHT22;8716;52.268;20.968;2023-10-31T08:14:16;15.70;99.90
17200;DHT22;8716;52.268;20.968;2023-10-31T08:16:45;15.70;99.90
17200;DHT22;8716;52.268;20.968;2023-10-31T08:19:13;15.70;99.90
17200;DHT22;8716;52.268;20.968;2023-10-31T08:21:44;15.70;99.90
17200;DHT22;8716;52.268;20.968;2023-10-31T08:24:16;15.80;99.90
17200;DHT22;8716;52.268;20.968;2023-10-31T08:26:46;15.90;99.90
17200;DHT22;8716;52.268;20.968;2023-10-31T08:29:17;15.90;99.90
17200;DHT22;8716;52.268;20.968;2023-10-31T08:31:45;16.00;99.90
17200;DHT22;8716;52.268;20.968;2023-10-31T08:34:17;16.00;99.90
17200;DHT22;8716;52.268;20.968;2023-10-31T08:36:45;16.10;99.90
17200;DHT22;8716;52.268;20.968;2023-10-31T08:39:14;16.20;99.90
17200;DHT22;8716;52.268;20.968;2023-10-31T08:41:51;16.40;99.90
17200;DHT22;8716;52.268;20.968;2023-10-31T08:44:19;16.40;99.90
17200;DHT22;8716;52.268;20.968;2023-10-31T08:46:48;16.50;99.90
17200;DHT22;8716;52.268;20.968;2023-10-31T08:49:16;16.60;99.90
17200;DHT22;8716;52.268;20.968;2023-10-31T08:51:45;16.70;99.90
17200;DHT22;8716;52.268;20.968;2023-10-31T08:54:13;16.80;99.90
17200;DHT22;8716;52.268;20.968;2023-10-31T08:56:42;16.90;99.90
17200;DHT22;8716;52.268;20.968;2023-10-31T08:59:14;16.90;99.90
17200;DHT22;8716;52.268;20.968;2023-10-31T09:01:42;17.00;99.90
17200;DHT22;8716;52.268;20.968;2023-10-31T09:04:11;17.10;99.90
17200;DHT22;8716;52.268;20.968;2023-10-31T09:06:39;17.20;99.90
17200;DHT22;8716;52.268;20.968;2023-10-31T09:09:08;17.20;99.90
17200;DHT22;8716;52.268;20.968;2023-10-31T09:11:37;17.30;99.90
17200;DHT22;8716;52.268;20.968;2023-10-31T09:14:06;17.30;99.90
17200;DHT22;8716;52.268;20.968;2023-10-31T09:16:37;17.30;99.90
17200;DHT22;8716;52.268;20.968;2023-10-31T09:19:06;17.30;99.90
17200;DHT22;8716;52.268;20.968;2023-10-31T09:21:34;17.30;99.90
17200;DHT22;8716;52.268;20.968;2023-10-31T09:24:08;17.30;99.90
17200;DHT22;8716;52.268;20.968;2023-10-31T09:26:37;17.30;99.90
17200;DHT22;8716;52.268;20.968;2023-10-31T09:29:05;17.20;99.90
17200;DHT22;8716;52.268;20.968;2023-10-31T09:31:43;17.20;99.90
17200;DHT22;8716;52.268;20.968;2023-10-31T09:34:11;17.20;99.90
17200;DHT22;8716;52.268;20.968;2023-10-31T09:36:40;17.30;99.90
17200;DHT22;8716;52.268;20.968;2023-10-31T09:39:12;17.30;99.90
17200;DHT22;8716;52.268;20.968;2023-10-31T09:41:41;17.30;99.90
17200;DHT22;8716;52.268;20.968;2023-10-31T09:44:12;17.30;99.90
17200;DHT22;8716;52.268;20.968;2023-10-31T09:46:40;17.30;99.90
17200;DHT22;8716;52.268;20.968;2023-10-31T09:49:10;17.30;99.90
17200;DHT22;8716;52.268;20.968;2023-10-31T09:51:39;17.30;99.90
17200;DHT22;8716;52.268;20.968;2023-10-31T09:54:08;17.30;99.90
17200;DHT22;8716;52.268;20.968;2023-10-31T09:56:37;17.30;99.90
17200;DHT22;8716;52.268;20.968;2023-10-31T09:59:05;17.30;99.90
17200;DHT22;8716;52.268;20.968;2023-10-31T10:01:33;17.30;99.90
17200;DHT22;8716;52.268;20.968;2023-10-31T10:04:05;17.30;99.90
17200;DHT22;8716;52.268;20.968;2023-10-31T10:06:35;17.40;99.90
17200;DHT22;8716;52.268;20.968;2023-10-31T10:09:03;17.40;99.90
17200;DHT22;8716;52.268;20.968;2023-10-31T10:11:34;17.50;99.90
17200;DHT22;8716;52.268;20.968;2023-10-31T10:14:05;17.60;99.90
17200;DHT22;8716;52.268;20.968;2023-10-31T10:16:36;17.60;99.90
17200;DHT22;8716;52.268;20.968;2023-10-31T10:19:18;17.60;99.90
17200;DHT22;8716;52.268;20.968;2023-10-31T10:21:53;17.60;99.90
17200;DHT22;8716;52.268;20.968;2023-10-31T10:24:22;17.70;99.90
17200;DHT22;8716;52.268;20.968;2023-10-31T10:26:51;17.70;99.90
17200;DHT22;8716;52.268;20.968;2023-10-31T10:29:20;17.80;99.90
17200;DHT22;8716;52.268;20.968;2023-10-31T10:31:48;17.90;99.90
17200;DHT22;8716;52.268;20.968;2023-10-31T10:34:16;17.90;99.90
17200;DHT22;8716;52.268;20.968;2023-10-31T10:36:47;18.00;99.90
17200;DHT22;8716;52.268;20.968;2023-10-31T10:39:20;18.10;99.90
17200;DHT22;8716;52.268;20.968;2023-10-31T10:41:53;18.20;99.90
17200;DHT22;8716;52.268;20.968;2023-10-31T10:44:29;18.30;99.90
17200;DHT22;8716;52.268;20.968;2023-10-31T10:47:04;18.50;99.90
17200;DHT22;8716;52.268;20.968;2023-10-31T10:49:34;18.60;99.90
17200;DHT22;8716;52.268;20.968;2023-10-31T10:52:17;18.60;99.90
17200;DHT22;8716;52.268;20.968;2023-10-31T10:54:53;18.60;99.90
17200;DHT22;8716;52.268;20.968;2023-10-31T10:57:31;18.70;99.90
17200;DHT22;8716;52.268;20.968;2023-10-31T11:00:04;18.70;99.90
17200;DHT22;8716;52.268;20.968;2023-10-31T11:02:40;18.70;99.90
17200;DHT22;8716;52.268;20.968;2023-10-31T11:05:10;18.70;99.90
17200;DHT22;8716;52.268;20.968;2023-10-31T11:07:39;18.80;99.90
17200;DHT22;8716;52.268;20.968;2023-10-31T11:10:10;18.80;99.90
17200;DHT22;8716;52.268;20.968;2023-10-31T11:12:38;18.80;99.90
17200;DHT22;8716;52.268;20.968;2023-10-31T11:15:08;18.80;99.90
17200;DHT22;8716;52.268;20.968;2023-10-31T11:17:40;18.80;99.90
17200;DHT22;8716;52.268;20.968;2023-10-31T11:20:11;18.90;99.90
17200;DHT22;8716;52.268;20.968;2023-10-31T11:22:42;18.90;99.90
17200;DHT22;8716;52.268;20.968;2023-10-31T11:25:19;18.90;99.90
17200;DHT22;8716;52.268;20.968;2023-10-31T11:28:13;18.90;99.90
17200;DHT22;8716;52.268;20.968;2023-10-31T11:30:46;18.90;99.90
17200;DHT22;8716;52.268;20.968;2023-10-31T11:33:24;18.90;99.90
17200;DHT22;8716;52.268;20.968;2023-10-31T11:36:00;18.90;99.90
17200;DHT22;8716;52.268;20.968;2023-10-31T11:38:34;18.90;99.90
17200;DHT22;8716;52.268;20.968;2023-10-31T11:41:04;18.80;99.90
17200;DHT22;8716;52.268;20.968;2023-10-31T11:43:54;18.80;99.90
17200;DHT22;8716;52.268;20.968;2023-10-31T11:46:24;18.80;99.90
17200;DHT22;8716;52.268;20.968;2023-10-31T11:48:54;18.80;99.90
17200;DHT22;8716;52.268;20.968;2023-10-31T11:51:24;18.80;99.90
17200;DHT22;8716;52.268;20.968;2023-10-31T11:53:52;18.80;99.90
17200;DHT22;8716;52.268;20.968;2023-10-31T11:56:22;18.80;99.90
17200;DHT22;8716;52.268;20.968;2023-10-31T11:58:58;18.70;99.90
17200;DHT22;8716;52.268;20.968;2023-10-31T12:01:31;18.70;99.90
17200;DHT22;8716;52.268;20.968;2023-10-31T12:04:05;18.70;99.90
17200;DHT22;8716;52.268;20.968;2023-10-31T12:06:35;18.60;99.90
17200;DHT22;8716;52.268;20.968;2023-10-31T12:09:05;18.60;99.90
17200;DHT22;8716;52.268;20.968;2023-10-31T12:11:44;18.60;99.90
17200;DHT22;8716;52.268;20.968;2023-10-31T12:14:18;18.60;99.90
17200;DHT22;8716;52.268;20.968;2023-10-31T12:16:46;18.60;99.90
17200;DHT22;8716;52.268;20.968;2023-10-31T12:19:15;18.60;99.90
17200;DHT22;8716;52.268;20.968;2023-10-31T12:21:44;18.70;99.90
17200;DHT22;8716;52.268;20.968;2023-10-31T12:24:15;18.80;99.90
17200;DHT22;8716;52.268;20.968;2023-10-31T12:26:46;18.80;99.90
17200;DHT22;8716;52.268;20.968;2023-10-31T12:29:16;18.80;99.90
17200;DHT22;8716;52.268;20.968;2023-10-31T12:31:45;18.80;99.90
17200;DHT22;8716;52.268;20.968;2023-10-31T12:34:14;18.80;99.90
17200;DHT22;8716;52.268;20.968;2023-10-31T12:36:44;18.70;99.90
17200;DHT22;8716;52.268;20.968;2023-10-31T12:39:13;18.70;99.90
17200;DHT22;8716;52.268;20.968;2023-10-31T12:41:47;18.70;99.90
17200;DHT22;8716;52.268;20.968;2023-10-31T12:44:20;18.70;99.90
17200;DHT22;8716;52.268;20.968;2023-10-31T12:46:53;18.60;99.90
17200;DHT22;8716;52.268;20.968;2023-10-31T12:49:22;18.60;99.90
17200;DHT22;8716;52.268;20.968;2023-10-31T12:51:58;18.50;99.90
17200;DHT22;8716;52.268;20.968;2023-10-31T12:54:28;18.40;99.90
17200;DHT22;8716;52.268;20.968;2023-10-31T12:57:03;18.40;99.90
17200;DHT22;8716;52.268;20.968;2023-10-31T12:59:33;18.30;99.90
17200;DHT22;8716;52.268;20.968;2023-10-31T13:02:01;18.30;99.90
17200;DHT22;8716;52.268;20.968;2023-10-31T13:04:31;18.30;99.90
17200;DHT22;8716;52.268;20.968;2023-10-31T13:07:02;18.30;99.90
17200;DHT22;8716;52.268;20.968;2023-10-31T13:09:31;18.20;99.90
17200;DHT22;8716;52.268;20.968;2023-10-31T13:12:05;18.20;99.90
17200;DHT22;8716;52.268;20.968;2023-10-31T13:14:34;18.10;99.90
17200;DHT22;8716;52.268;20.968;2023-10-31T13:17:04;18.10;99.90
17200;DHT22;8716;52.268;20.968;2023-10-31T13:19:32;18.00;99.90
17200;DHT22;8716;52.268;20.968;2023-10-31T13:22:01;18.00;99.90
17200;DHT22;8716;52.268;20.968;2023-10-31T13:24:29;18.00;99.90
17200;DHT22;8716;52.268;20.968;2023-10-31T13:26:58;18.00;99.90
17200;DHT22;8716;52.268;20.968;2023-10-31T13:29:29;18.00;99.90
17200;DHT22;8716;52.268;20.968;2023-10-31T13:31:57;17.90;99.90
17200;DHT22;8716;52.268;20.968;2023-10-31T13:34:26;17.90;99.90
17200;DHT22;8716;52.268;20.968;2023-10-31T13:36:54;17.80;99.90
17200;DHT22;8716;52.268;20.968;2023-10-31T13:39:22;17.80;99.90
17200;DHT22;8716;52.268;20.968;2023-10-31T13:41:51;17.80;99.90
17200;DHT22;8716;52.268;20.968;2023-10-31T13:44:20;17.70;99.90
17200;DHT22;8716;52.268;20.968;2023-10-31T13:46:50;17.80;99.90
17200;DHT22;8716;52.268;20.968;2023-10-31T13:49:18;17.80;99.90
17200;DHT22;8716;52.268;20.968;2023-10-31T13:51:47;17.80;99.90
17200;DHT22;8716;52.268;20.968;2023-10-31T13:54:16;17.80;99.90
17200;DHT22;8716;52.268;20.968;2023-10-31T13:56:44;17.80;99.90
17200;DHT22;8716;52.268;20.968;2023-10-31T13:59:12;17.80;99.90
17200;DHT22;8716;52.268;20.968;2023-10-31T14:01:41;17.70;99.90
17200;DHT22;8716;52.268;20.968;2023-10-31T14:04:12;17.60;99.90
17200;DHT22;8716;52.268;20.968;2023-10-31T14:06:42;17.60;99.90
17200;DHT22;8716;52.268;20.968;2023-10-31T14:09:11;17.60;99.90
17200;DHT22;8716;52.268;20.968;2023-10-31T14:11:40;17.50;99.90
17200;DHT22;8716;52.268;20.968;2023-10-31T14:14:09;17.60;99.90
17200;DHT22;8716;52.268;20.968;2023-10-31T14:16:40;17.50;99.90
17200;DHT22;8716;52.268;20.968;2023-10-31T14:19:12;17.50;99.90
17200;DHT22;8716;52.268;20.968;2023-10-31T14:21:41;17.60;99.90
17200;DHT22;8716;52.268;20.968;2023-10-31T14:24:10;17.50;99.90
17200;DHT22;8716;52.268;20.968;2023-10-31T14:26:40;17.50;99.90
17200;DHT22;8716;52.268;20.968;2023-10-31T14:29:11;17.50;99.90
17200;DHT22;8716;52.268;20.968;2023-10-31T14:31:40;17.40;99.90
17200;DHT22;8716;52.268;20.968;2023-10-31T14:34:10;17.40;99.90
17200;DHT22;8716;52.268;20.968;2023-10-31T14:36:40;17.40;99.90
17200;DHT22;8716;52.268;20.968;2023-10-31T14:39:09;17.40;99.90
17200;DHT22;8716;52.268;20.968;2023-10-31T14:41:45;17.40;99.90
17200;DHT22;8716;52.268;20.968;2023-10-31T14:44:13;17.40;99.90
17200;DHT22;8716;52.268;20.968;2023-10-31T14:46:42;17.30;99.90
17200;DHT22;8716;52.268;20.968;2023-10-31T14:49:10;17.30;99.90
17200;DHT22;8716;52.268;20.968;2023-10-31T14:51:40;17.30;99.90
17200;DHT22;8716;52.268;20.968;2023-10-31T14:54:09;17.20;99.90
17200;DHT22;8716;52.268;20.968;2023-10-31T14:56:37;17.10;99.90
17200;DHT22;8716;52.268;20.968;2023-10-31T14:59:07;17.10;99.90
17200;DHT22;8716;52.268;20.968;2023-10-31T15:01:35;17.00;99.90
17200;DHT22;8716;52.268;20.968;2023-10-31T15:04:04;16.90;99.90
17200;DHT22;8716;52.268;20.968;2023-10-31T15:06:33;16.90;99.90
17200;DHT22;8716;52.268;20.968;2023-10-31T15:09:03;16.80;99.90
17200;DHT22;8716;52.268;20.968;2023-10-31T15:11:31;16.70;99.90
17200;DHT22;8716;52.268;20.968;2023-10-31T15:14:01;16.60;99.90
17200;DHT22;8716;52.268;20.968;2023-10-31T15:16:29;16.50;99.90
17200;DHT22;8716;52.268;20.968;2023-10-31T15:18:58;16.50;99.90
17200;DHT22;8716;52.268;20.968;2023-10-31T15:21:26;16.50;99.90
17200;DHT22;8716;52.268;20.968;2023-10-31T15:23:56;16.40;99.90
17200;DHT22;8716;52.268;20.968;2023-10-31T15:26:29;16.40;99.90
17200;DHT22;8716;52.268;20.968;2023-10-31T15:28:57;16.30;99.90
17200;DHT22;8716;52.268;20.968;2023-10-31T15:31:26;16.30;99.90
17200;DHT22;8716;52.268;20.968;2023-10-31T15:33:54;16.20;99.90
17200;DHT22;8716;52.268;20.968;2023-10-31T15:36:22;16.10;99.90
17200;DHT22;8716;52.268;20.968;2023-10-31T15:38:51;16.10;99.90
17200;DHT22;8716;52.268;20.968;2023-10-31T15:41:19;16.00;99.90
17200;DHT22;8716;52.268;20.968;2023-10-31T15:43:53;16.00;99.90
17200;DHT22;8716;52.268;20.968;2023-10-31T15:46:22;16.00;99.90
17200;DHT22;8716;52.268;20.968;2023-10-31T15:48:50;15.90;99.90